Time;durP1;ratioP1;P1;durP2;ratioP2;P2;SDS_P1;SDS_P2;PMS_P1;PMS_P2;Temp;Humidity;BMP_temperature;BMP_pressure;BME280_temperature;BME280_humidity;BME280_pressure;Samples;Min_cycle;Max_cycle;Signal;HPM_P1;HPM_P2
2022/06/23 00:00:16;;;;;;;;;;;;;;;17.14;30.51;95268.84;5044611;28;19968;-63
2022/06/23 00:02:42;;;;;;;;;;;;;;;17.36;30.39;95267.50;5062499;28;20484;-64
2022/06/23 00:05:10;;;;;;;;;;;;;;;17.30;30.90;95261.19;5062053;28;19962;-65
2022/06/23 00:07:35;;;;;;;;;;;;;;;17.21;31.97;95258.03;5045133;28;19960;-65
2022/06/23 00:10:02;;;;;;;;;;;;;;;17.16;32.13;95247.13;5062422;28;20035;-63
2022/06/23 00:12:29;;;;;;;;;;;;;;;17.16;31.93;95252.50;5062666;28;19994;-64
2022/06/23 00:15:00;;;;;;;;;;;;;;;17.27;31.32;95250.91;5062335;28;19984;-65
2022/06/23 00:17:36;;;;;;;;;;;;;;;17.34;31.57;95242.72;5062400;28;19996;-67
2022/06/23 00:20:08;;;;;;;;;;;;;;;17.33;31.07;95249.16;5059580;28;19960;-63
2022/06/23 00:22:33;;;;;;;;;;;;;;;17.33;31.33;95251.88;5043962;28;20421;-66
2022/06/23 00:25:00;;;;;;;;;;;;;;;17.36;31.06;95240.63;5077962;28;20005;-64
2022/06/23 00:27:29;;;;;;;;;;;;;;;17.44;30.69;95240.28;5053406;28;19982;-64
2022/06/23 00:29:55;;;;;;;;;;;;;;;17.56;30.16;95247.56;5065472;28;20074;-63
2022/06/23 00:32:20;;;;;;;;;;;;;;;17.56;30.58;95247.56;5065923;28;19961;-64
2022/06/23 00:34:58;;;;;;;;;;;;;;;17.48;30.96;95244.16;5046901;28;20119;-64
2022/06/23 00:37:24;;;;;;;;;;;;;;;17.43;30.92;95237.84;5047511;28;20506;-66
2022/06/23 00:39:53;;;;;;;;;;;;;;;17.35;31.35;95241.66;5065318;28;19952;-63
2022/06/23 00:42:32;;;;;;;;;;;;;;;17.31;31.34;95235.13;5052103;28;20420;-64
2022/06/23 00:45:02;;;;;;;;;;;;;;;17.33;31.42;95231.13;5062281;28;19958;-65
2022/06/23 00:47:36;;;;;;;;;;;;;;;17.26;31.54;95225.03;5072329;28;20094;-63
2022/06/23 00:50:22;;;;;;;;;;;;;;;17.25;31.65;95229.63;5064796;28;20402;-65
2022/06/23 00:52:49;;;;;;;;;;;;;;;17.12;31.69;95237.88;5024227;28;19966;-63
2022/06/23 00:55:24;;;;;;;;;;;;;;;17.21;31.71;95241.88;5075827;28;19976;-65
2022/06/23 00:57:51;;;;;;;;;;;;;;;17.14;32.70;95241.16;5058226;28;19982;-64
2022/06/23 01:00:17;;;;;;;;;;;;;;;17.10;32.22;95229.19;5065091;28;19974;-64
2022/06/23 01:02:44;;;;;;;;;;;;;;;16.92;32.92;95235.44;5052630;28;20438;-64
2022/06/23 01:05:17;;;;;;;;;;;;;;;16.97;32.73;95233.72;5043641;28;19959;-64
2022/06/23 01:07:54;;;;;;;;;;;;;;;16.93;33.08;95237.09;5056778;28;19989;-63
2022/06/23 01:10:22;;;;;;;;;;;;;;;17.02;32.35;95224.94;5064384;28;20651;-64
2022/06/23 01:12:51;;;;;;;;;;;;;;;16.94;32.80;95234.16;5080900;28;20010;-64
2022/06/23 01:15:17;;;;;;;;;;;;;;;16.93;32.46;95237.09;5063930;28;20393;-64
2022/06/23 01:17:50;;;;;;;;;;;;;;;17.03;32.71;95230.09;5064937;28;19985;-64
2022/06/23 01:20:15;;;;;;;;;;;;;;;17.00;32.56;95232.44;5058763;28;20666;-64
2022/06/23 01:22:40;;;;;;;;;;;;;;;16.93;32.78;95231.72;5064587;28;20025;-64
2022/06/23 01:25:26;;;;;;;;;;;;;;;16.88;33.21;95230.53;5063031;28;19967;-65
2022/06/23 01:28:11;;;;;;;;;;;;;;;16.77;33.35;95229.41;5055581;28;19974;-64
2022/06/23 01:30:39;;;;;;;;;;;;;;;16.87;32.71;95228.84;5063557;28;20022;-65
2022/06/23 01:33:16;;;;;;;;;;;;;;;16.94;32.89;95239.53;5080114;28;20522;-64
2022/06/23 01:35:46;;;;;;;;;;;;;;;16.93;32.67;95237.88;5063728;28;19960;-65
2022/06/23 01:38:13;;;;;;;;;;;;;;;16.92;32.85;95233.56;5063863;28;20474;-64
2022/06/23 01:40:41;;;;;;;;;;;;;;;16.75;33.37;95218.06;5050970;28;20193;-65
2022/06/23 01:43:11;;;;;;;;;;;;;;;16.83;33.41;95216.13;5063231;28;20464;-66
2022/06/23 01:45:43;;;;;;;;;;;;;;;16.86;33.05;95215.66;5064280;28;20073;-64
2022/06/23 01:48:51;;;;;;;;;;;;;;;16.94;32.68;95211.84;5064623;28;20475;-65
2022/06/23 01:51:04;;;;;;;;;;;;;;;16.92;32.93;95224.69;5036164;28;20043;-65
2022/06/23 01:53:33;;;;;;;;;;;;;;;16.88;33.10;95208.19;5064588;28;19982;-65
2022/06/23 01:56:17;;;;;;;;;;;;;;;16.80;33.30;95216.56;5055015;28;19968;-65
2022/06/23 01:58:51;;;;;;;;;;;;;;;16.83;33.32;95216.13;5061266;28;19990;-66
2022/06/23 02:01:42;;;;;;;;;;;;;;;16.83;33.59;95216.13;5040429;28;19970;-64
2022/06/23 02:04:14;;;;;;;;;;;;;;;16.89;32.93;95223.25;5058520;28;20107;-65
2022/06/23 02:06:42;;;;;;;;;;;;;;;16.85;33.17;95220.22;5069260;28;19987;-63
2022/06/23 02:09:30;;;;;;;;;;;;;;;16.88;33.54;95218.94;5045152;28;20018;-64
2022/06/23 02:11:55;;;;;;;;;;;;;;;16.96;33.16;95228.56;5039476;28;20056;-64
2022/06/23 02:14:39;;;;;;;;;;;;;;;17.06;32.88;95225.31;5078919;28;20590;-64
2022/06/23 02:17:17;;;;;;;;;;;;;;;17.07;32.98;95226.97;5044965;28;20144;-65
2022/06/23 02:19:42;;;;;;;;;;;;;;;17.03;33.20;95238.16;5058688;28;19968;-66
2022/06/23 02:22:22;;;;;;;;;;;;;;;17.02;32.93;95241.06;5058277;28;19998;-65
2022/06/23 02:24:47;;;;;;;;;;;;;;;16.95;33.16;95241.19;5050918;28;19967;-64
2022/06/23 02:27:18;;;;;;;;;;;;;;;16.89;33.70;95234.84;5044648;28;20411;-65
2022/06/23 02:29:45;;;;;;;;;;;;;;;16.91;33.32;95237.31;5075532;28;20048;-65
2022/06/23 02:32:18;;;;;;;;;;;;;;;16.86;33.77;95243.34;5078523;28;19960;-66
2022/06/23 02:34:46;;;;;;;;;;;;;;;16.82;33.72;95236.78;5073203;28;19976;-65
2022/06/23 02:37:29;;;;;;;;;;;;;;;16.79;33.86;95245.31;5056221;28;19998;-65
2022/06/23 02:39:55;;;;;;;;;;;;;;;16.75;33.43;95239.59;5063238;28;19992;-64
2022/06/23 02:42:23;;;;;;;;;;;;;;;16.60;34.16;95250.72;5076799;28;20402;-65
2022/06/23 02:44:51;;;;;;;;;;;;;;;16.61;33.93;95246.16;5062901;28;20218;-64
2022/06/23 02:47:16;;;;;;;;;;;;;;;16.63;34.10;95244.09;5063105;28;19994;-65
2022/06/23 02:50:14;;;;;;;;;;;;;;;16.59;34.33;95245.59;5058796;28;20341;-65
2022/06/23 02:52:47;;;;;;;;;;;;;;;16.55;34.71;95249.78;5017264;28;20059;-64
2022/06/23 02:55:12;;;;;;;;;;;;;;;16.56;34.88;95254.91;5062637;28;19983;-64
2022/06/23 02:57:40;;;;;;;;;;;;;;;16.54;34.67;95256.16;5063126;28;20344;-64
2022/06/23 03:00:06;;;;;;;;;;;;;;;16.52;35.10;95264.44;5054933;28;20442;-64
2022/06/23 03:02:35;;;;;;;;;;;;;;;16.50;34.93;95264.69;5062671;28;20000;-64
2022/06/23 03:05:03;;;;;;;;;;;;;;;16.48;35.17;95264.09;5077701;28;19966;-65
2022/06/23 03:07:47;;;;;;;;;;;;;;;16.50;34.95;95267.38;5063021;28;20064;-64
2022/06/23 03:10:20;;;;;;;;;;;;;;;16.45;35.61;95267.22;5061899;28;19998;-65
2022/06/23 03:12:54;;;;;;;;;;;;;;;16.44;35.38;95260.22;5045165;28;20458;-64
2022/06/23 03:15:28;;;;;;;;;;;;;;;16.41;35.84;95263.34;5050908;28;20079;-64
2022/06/23 03:17:56;;;;;;;;;;;;;;;16.43;35.32;95261.25;5048353;28;19987;-65
2022/06/23 03:20:25;;;;;;;;;;;;;;;16.44;35.65;95254.84;5050430;28;19970;-65
2022/06/23 03:23:10;;;;;;;;;;;;;;;16.48;35.83;95261.41;5062746;28;20021;-65
2022/06/23 03:25:55;;;;;;;;;;;;;;;16.50;35.39;95266.56;5023820;28;20002;-65
2022/06/23 03:28:24;;;;;;;;;;;;;;;16.46;35.47;95260.00;5063059;28;19970;-65
2022/06/23 03:30:59;;;;;;;;;;;;;;;16.48;35.65;95264.09;5039073;28;20089;-64
2022/06/23 03:33:29;;;;;;;;;;;;;;;16.46;35.95;95260.78;5058375;28;20072;-65
2022/06/23 03:35:57;;;;;;;;;;;;;;;16.46;36.23;95262.69;5036462;28;20022;-64
2022/06/23 03:41:36;;;;;;;;;;;;;;;16.44;35.94;95257.53;5061727;28;20091;-65
2022/06/23 03:43:59;;;;;;;;;;;;;;;16.42;36.21;95262.28;5049852;28;20025;-65
2022/06/23 03:46:26;;;;;;;;;;;;;;;16.48;35.92;95264.09;5062401;28;19994;-64
2022/06/23 03:48:55;;;;;;;;;;;;;;;16.52;35.73;95256.38;5032189;28;19969;-64
2022/06/23 03:51:26;;;;;;;;;;;;;;;16.50;36.28;95255.81;5042818;28;20232;-65
2022/06/23 03:54:04;;;;;;;;;;;;;;;16.52;35.93;95267.97;5062833;28;20012;-65
2022/06/23 03:56:34;;;;;;;;;;;;;;;16.58;36.11;95262.72;5052236;28;20408;-64
2022/06/23 03:59:01;;;;;;;;;;;;;;;16.62;36.30;95258.53;5060833;28;20029;-65
2022/06/23 04:01:47;;;;;;;;;;;;;;;16.57;36.64;95263.78;5041573;28;19995;-64
2022/06/23 04:04:13;;;;;;;;;;;;;;;16.38;37.54;95269.16;5082450;28;20095;-65
2022/06/23 04:06:39;;;;;;;;;;;;;;;16.49;37.14;95275.66;5065627;28;19994;-65
2022/06/23 04:09:06;;;;;;;;;;;;;;;16.52;37.54;95277.88;5066488;28;19977;-65
2022/06/23 04:11:45;;;;;;;;;;;;;;;16.65;36.20;95279.59;5039009;28;20071;-64
2022/06/23 04:14:30;;;;;;;;;;;;;;;16.61;37.00;95273.03;5064276;28;19988;-65
2022/06/23 04:17:05;;;;;;;;;;;;;;;16.64;36.79;95277.97;5054316;28;19953;-65
2022/06/23 04:19:30;;;;;;;;;;;;;;;16.69;36.47;95279.97;5044666;28;20383;-64
2022/06/23 04:22:04;;;;;;;;;;;;;;;16.77;36.53;95277.78;5062452;28;20022;-64
2022/06/23 04:24:29;;;;;;;;;;;;;;;16.94;36.60;95273.66;5048379;28;20421;-65
2022/06/23 04:26:56;;;;;;;;;;;;;;;17.06;36.70;95281.78;5054672;28;19989;-65
2022/06/23 04:29:23;;;;;;;;;;;;;;;17.15;36.19;95278.59;5078447;28;20160;-65
2022/06/23 04:31:52;;;;;;;;;;;;;;;17.31;36.71;95284.38;5063909;28;20012;-65
2022/06/23 04:34:22;;;;;;;;;;;;;;;17.45;36.43;95282.28;5065281;28;19983;-65
2022/06/23 04:36:48;;;;;;;;;;;;;;;17.57;36.39;95279.63;5081547;28;19964;-65
2022/06/23 04:39:19;;;;;;;;;;;;;;;17.69;36.12;95274.25;5036052;28;19996;-64
2022/06/23 04:41:45;;;;;;;;;;;;;;;17.85;35.64;95288.94;5069066;28;20345;-65
2022/06/23 04:44:17;;;;;;;;;;;;;;;18.00;35.35;95287.66;5066195;28;20462;-65
2022/06/23 04:46:43;;;;;;;;;;;;;;;18.09;35.52;95293.53;5044258;28;20060;-65
2022/06/23 04:49:17;;;;;;;;;;;;;;;18.20;34.85;95286.47;5071314;28;19956;-66
2022/06/23 04:51:51;;;;;;;;;;;;;;;18.28;34.68;95284.25;5063016;28;20440;-66
2022/06/23 04:54:17;;;;;;;;;;;;;;;18.43;34.60;95283.75;5056897;28;20228;-65
2022/06/23 04:56:49;;;;;;;;;;;;;;;18.56;34.58;95290.78;5064933;28;19980;-65
2022/06/23 04:59:30;;;;;;;;;;;;;;;18.67;34.77;95293.72;5081031;28;20412;-65
2022/06/23 05:01:56;;;;;;;;;;;;;;;18.78;34.59;95298.28;5060075;28;20098;-65
2022/06/23 05:04:26;;;;;;;;;;;;;;;18.91;34.57;95296.34;5056563;28;19972;-65
2022/06/23 05:06:52;;;;;;;;;;;;;;;19.03;34.11;95296.28;5078953;28;20436;-65
2022/06/23 05:09:17;;;;;;;;;;;;;;;19.11;34.01;95304.03;5078893;28;20457;-65
2022/06/23 05:11:47;;;;;;;;;;;;;;;19.26;34.31;95308.88;5053659;28;20483;-66
2022/06/23 05:14:23;;;;;;;;;;;;;;;19.43;33.88;95305.44;5064200;28;20012;-65
2022/06/23 05:16:50;;;;;;;;;;;;;;;19.55;33.37;95305.38;5068656;28;19962;-66
2022/06/23 05:19:34;;;;;;;;;;;;;;;19.67;32.82;95302.59;5062973;28;19988;-67
2022/06/23 05:22:00;;;;;;;;;;;;;;;19.85;32.69;95298.84;5048785;28;19990;-67
2022/06/23 05:24:27;;;;;;;;;;;;;;;19.97;32.39;95301.50;5045902;28;19955;-66
2022/06/23 05:26:54;;;;;;;;;;;;;;;20.17;32.75;95303.69;5045709;28;19970;-66
2022/06/23 05:29:32;;;;;;;;;;;;;;;20.32;32.21;95307.66;5041504;28;20503;-66
2022/06/23 05:31:59;;;;;;;;;;;;;;;20.42;32.48;95302.41;5072079;28;19954;-66
2022/06/23 05:34:26;;;;;;;;;;;;;;;20.59;32.21;95296.97;5060290;28;20613;-65
2022/06/23 05:36:51;;;;;;;;;;;;;;;20.71;32.09;95298.78;5057946;28;20329;-66
2022/06/23 05:39:21;;;;;;;;;;;;;;;20.73;31.94;95302.03;5058437;28;19974;-66
2022/06/23 05:41:47;;;;;;;;;;;;;;;20.85;31.72;95301.91;5035255;28;20407;-66
2022/06/23 05:44:16;;;;;;;;;;;;;;;21.10;31.21;95306.81;5072851;28;20003;-65
2022/06/23 05:46:42;;;;;;;;;;;;;;;21.27;31.33;95310.50;5063965;28;19966;-66
2022/06/23 05:49:15;;;;;;;;;;;;;;;21.27;30.98;95311.34;5046012;28;20420;-66
2022/06/23 05:51:43;;;;;;;;;;;;;;;21.22;31.06;95311.25;5040474;28;19950;-66
2022/06/23 05:54:17;;;;;;;;;;;;;;;21.51;30.77;95321.84;5042073;28;19965;-66
2022/06/23 05:56:46;;;;;;;;;;;;;;;21.60;30.83;95317.63;5039844;28;20345;-66
2022/06/23 05:59:21;;;;;;;;;;;;;;;21.45;29.62;95321.00;5062433;28;19974;-65
2022/06/23 06:01:55;;;;;;;;;;;;;;;21.37;28.56;95322.28;5037400;28;20503;-66
2022/06/23 06:04:22;;;;;;;;;;;;;;;21.19;28.35;95319.88;5053739;28;19975;-66
2022/06/23 06:06:48;;;;;;;;;;;;;;;20.99;28.66;95310.47;5056720;28;19981;-66
2022/06/23 06:11:58;;;;;;;;;;;;;;;21.36;29.95;95315.25;5062205;28;20012;-66
2022/06/23 06:14:25;;;;;;;;;;;;;;;21.17;29.35;95312.00;5041647;28;20333;-66
2022/06/23 06:16:52;;;;;;;;;;;;;;;21.21;28.32;95315.84;5046337;28;19948;-66
2022/06/23 06:19:19;;;;;;;;;;;;;;;21.37;29.29;95316.88;5053653;28;20054;-66
2022/06/23 06:21:45;;;;;;;;;;;;;;;21.47;28.59;95320.75;5066010;28;20479;-66
2022/06/23 06:24:22;;;;;;;;;;;;;;;21.50;29.09;95323.78;5034561;28;19965;-65
2022/06/23 06:26:49;;;;;;;;;;;;;;;21.59;29.20;95326.81;5041920;28;19978;-67
2022/06/23 06:29:18;;;;;;;;;;;;;;;21.24;29.80;95319.94;5058031;28;20500;-66
2022/06/23 06:31:47;;;;;;;;;;;;;;;21.88;28.17;95321.13;5059279;28;19944;-67
2022/06/23 06:34:12;;;;;;;;;;;;;;;21.57;29.28;95315.44;5051035;28;20324;-66
2022/06/23 06:36:39;;;;;;;;;;;;;;;22.12;28.83;95309.13;5057416;28;20628;-66
2022/06/23 06:39:04;;;;;;;;;;;;;;;21.88;28.39;95318.41;5053903;28;20024;-66
2022/06/23 06:41:32;;;;;;;;;;;;;;;22.04;29.93;95317.75;5052542;28;20066;-66
2022/06/23 06:43:58;;;;;;;;;;;;;;;22.64;29.11;95315.72;5054549;28;20062;-66
2022/06/23 06:46:23;;;;;;;;;;;;;;;22.76;30.02;95311.97;5054668;28;20462;-65
2022/06/23 06:48:48;;;;;;;;;;;;;;;22.41;30.05;95312.28;5057424;28;19944;-65
2022/06/23 06:51:17;;;;;;;;;;;;;;;22.98;29.64;95306.34;5035925;28;19955;-65
2022/06/23 06:53:43;;;;;;;;;;;;;;;22.79;29.07;95303.31;5052853;28;20657;-65
2022/06/23 06:56:14;;;;;;;;;;;;;;;22.90;29.05;95307.69;5057712;28;20260;-65
2022/06/23 06:58:45;;;;;;;;;;;;;;;23.02;29.92;95309.38;5074274;28;19986;-65
2022/06/23 07:01:16;;;;;;;;;;;;;;;23.14;27.78;95306.44;5051377;28;20076;-65
2022/06/23 07:03:43;;;;;;;;;;;;;;;23.22;29.30;95315.97;5041462;28;20437;-65
2022/06/23 07:06:10;;;;;;;;;;;;;;;23.36;27.59;95308.13;5067098;28;19959;-65
2022/06/23 07:08:37;;;;;;;;;;;;;;;23.76;27.91;95306.56;5054223;28;20321;-65
2022/06/23 07:11:08;;;;;;;;;;;;;;;23.62;27.87;95308.97;5033047;28;19963;-65
2022/06/23 07:13:52;;;;;;;;;;;;;;;23.76;28.49;95314.72;5040969;28;20364;-65
2022/06/23 07:16:26;;;;;;;;;;;;;;;23.95;27.98;95308.75;5043896;28;19976;-65
2022/06/23 07:18:59;;;;;;;;;;;;;;;23.74;29.77;95303.34;5042817;28;20353;-66
2022/06/23 07:21:24;;;;;;;;;;;;;;;23.66;28.20;95301.13;5047391;28;20166;-65
2022/06/23 07:23:57;;;;;;;;;;;;;;;23.94;28.35;95307.94;5030582;28;19954;-65
2022/06/23 07:26:27;;;;;;;;;;;;;;;24.01;28.69;95299.53;5062586;28;20017;-65
2022/06/23 07:28:55;;;;;;;;;;;;;;;24.07;28.49;95303.06;5061150;28;19972;-66
2022/06/23 07:31:22;;;;;;;;;;;;;;;24.26;29.15;95310.63;5068466;28;20508;-66
2022/06/23 07:33:52;;;;;;;;;;;;;;;24.27;28.80;95299.47;5064978;28;20331;-66
2022/06/23 07:36:23;;;;;;;;;;;;;;;24.29;28.63;95300.03;5037586;28;19942;-66
2022/06/23 07:38:50;;;;;;;;;;;;;;;24.09;27.90;95298.16;5053412;28;19959;-67
2022/06/23 07:41:16;;;;;;;;;;;;;;;24.06;29.44;95299.50;5059940;28;19965;-66
2022/06/23 07:43:42;;;;;;;;;;;;;;;23.68;28.84;95302.47;5049047;28;19960;-64
2022/06/23 07:46:07;;;;;;;;;;;;;;;24.13;27.84;95304.66;5050893;28;20468;-65
2022/06/23 07:48:33;;;;;;;;;;;;;;;24.14;28.99;95306.31;5048748;28;19940;-68
2022/06/23 07:50:58;;;;;;;;;;;;;;;24.36;28.55;95305.22;5059085;28;20038;-66
2022/06/23 07:53:39;;;;;;;;;;;;;;;24.71;28.11;95306.19;5032799;28;19967;-66
2022/06/23 07:56:05;;;;;;;;;;;;;;;24.78;27.03;95305.09;5059553;28;19980;-66
2022/06/23 07:58:32;;;;;;;;;;;;;;;24.54;26.94;95308.44;5059694;28;19954;-67
2022/06/23 08:00:59;;;;;;;;;;;;;;;24.14;28.19;95314.47;5056598;28;20598;-68
2022/06/23 08:03:27;;;;;;;;;;;;;;;24.26;28.52;95316.88;5039564;28;19968;-71
2022/06/23 08:05:53;;;;;;;;;;;;;;;24.53;27.97;95315.78;5074283;28;20075;-67
2022/06/23 08:08:22;;;;;;;;;;;;;;;25.05;27.90;95306.66;5035686;28;19950;-69
2022/06/23 08:10:48;;;;;;;;;;;;;;;24.92;27.45;95311.59;5038761;28;20398;-67
2022/06/23 08:13:18;;;;;;;;;;;;;;;25.12;27.65;95312.59;5042568;28;20454;-67
2022/06/23 08:18:41;;;;;;;;;;;;;;;25.40;27.53;95307.56;5072840;28;20219;-67
2022/06/23 08:21:26;;;;;;;;;;;;;;;25.13;26.35;95314.25;5068257;28;19958;-66
2022/06/23 08:23:52;;;;;;;;;;;;;;;25.57;26.77;95311.84;5043130;28;20059;-67
2022/06/23 08:26:18;;;;;;;;;;;;;;;25.74;26.07;95308.72;5076525;28;20313;-62
2022/06/23 08:28:43;;;;;;;;;;;;;;;25.93;26.98;95313.50;5063168;28;20026;-76
2022/06/23 08:31:08;;;;;;;;;;;;;;;26.20;27.18;95306.72;5073706;28;19965;-75
2022/06/23 08:33:34;;;;;;;;;;;;;;;26.40;25.04;95300.25;5064166;28;19954;-76
2022/06/23 08:36:01;;;;;;;;;;;;;;;26.58;25.54;95297.94;5047050;28;19947;-80
2022/06/23 08:38:38;;;;;;;;;;;;;;;26.34;25.92;95304.16;5075945;28;19972;-80
2022/06/23 08:41:12;;;;;;;;;;;;;;;26.62;25.45;95302.50;5039714;28;19936;-83
2022/06/23 08:43:49;;;;;;;;;;;;;;;26.73;25.12;95296.94;5045890;28;19946;-81
2022/06/23 08:46:18;;;;;;;;;;;;;;;27.04;26.33;95302.03;5049006;28;20417;-82
2022/06/23 08:48:45;;;;;;;;;;;;;;;27.33;25.07;95300.31;5046939;28;19924;-82
2022/06/23 08:51:11;;;;;;;;;;;;;;;27.32;25.57;95295.97;5065298;28;20368;-83
2022/06/23 08:53:46;;;;;;;;;;;;;;;27.56;25.41;95295.06;5046546;28;19986;-82
2022/06/23 08:56:13;;;;;;;;;;;;;;;27.67;24.12;95296.56;5065672;28;19909;-83
2022/06/23 08:59:04;;;;;;;;;;;;;;;27.70;24.44;95295.16;5073842;28;19931;-83
2022/06/23 09:01:35;;;;;;;;;;;;;;;27.61;24.24;95297.72;5024398;28;19992;-82
2022/06/23 09:04:06;;;;;;;;;;;;;;;27.36;25.08;95291.53;5047241;28;19960;-80
2022/06/23 09:06:35;;;;;;;;;;;;;;;27.72;23.81;95293.75;5047087;28;19924;-83
2022/06/23 09:09:06;;;;;;;;;;;;;;;27.89;25.08;95297.84;5047271;28;19931;-83
2022/06/23 09:11:35;;;;;;;;;;;;;;;27.76;23.94;95297.50;5063307;28;19920;-84
2022/06/23 09:14:19;;;;;;;;;;;;;;;27.87;23.62;95289.94;5047149;28;19924;-84
2022/06/23 09:17:04;;;;;;;;;;;;;;;27.96;23.55;95301.03;5058218;28;19923;-84
2022/06/23 09:19:41;;;;;;;;;;;;;;;27.96;23.07;95294.72;5059356;28;20473;-82
2022/06/23 09:22:29;;;;;;;;;;;;;;;27.73;24.33;95295.38;5044746;28;19932;-82
2022/06/23 09:24:58;;;;;;;;;;;;;;;28.34;23.22;95304.81;5036535;28;20249;-83
2022/06/23 09:27:42;;;;;;;;;;;;;;;28.43;22.52;95300.25;5064374;28;19939;-77
2022/06/23 09:30:26;;;;;;;;;;;;;;;28.49;22.46;95298.22;5072297;28;19940;-77
2022/06/23 09:33:13;;;;;;;;;;;;;;;28.68;22.04;95287.19;5042744;28;20213;-77
2022/06/23 09:36:05;;;;;;;;;;;;;;;28.63;22.26;95288.09;5045515;28;19921;-77
2022/06/23 09:38:30;;;;;;;;;;;;;;;28.78;22.59;95291.66;5059610;28;20202;-77
2022/06/23 09:41:04;;;;;;;;;;;;;;;29.02;22.50;95294.19;5044940;28;19927;-77
2022/06/23 09:43:48;;;;;;;;;;;;;;;29.08;21.21;95294.88;5063334;28;20251;-76
2022/06/23 09:46:13;;;;;;;;;;;;;;;29.03;21.17;95289.53;5062409;28;19924;-77
2022/06/23 09:48:57;;;;;;;;;;;;;;;27.99;22.09;95291.41;5062769;28;19912;-74
2022/06/23 09:51:34;;;;;;;;;;;;;;;28.67;22.37;95286.41;5062496;28;20300;-74
2022/06/23 09:54:12;;;;;;;;;;;;;;;28.74;21.70;95279.69;5062157;28;19924;-74
2022/06/23 09:56:56;;;;;;;;;;;;;;;28.98;21.53;95282.22;5062891;28;20262;-74
2022/06/23 09:59:24;;;;;;;;;;;;;;;29.12;22.18;95276.72;5062099;28;20263;-74
2022/06/23 10:01:57;;;;;;;;;;;;;;;29.01;22.32;95281.63;5061982;28;20011;-74
2022/06/23 10:04:28;;;;;;;;;;;;;;;29.36;21.67;95280.38;5044810;28;20387;-74
2022/06/23 10:06:56;;;;;;;;;;;;;;;29.58;21.37;95286.97;5062007;28;19930;-75
2022/06/23 10:09:21;;;;;;;;;;;;;;;29.85;21.00;95280.59;5044552;28;19998;-75
2022/06/23 10:12:00;;;;;;;;;;;;;;;30.11;21.22;95282.69;5062926;28;20488;-75
2022/06/23 10:14:32;;;;;;;;;;;;;;;30.16;22.31;95285.34;5027943;28;19942;-75
2022/06/23 10:17:01;;;;;;;;;;;;;;;29.94;21.15;95273.25;5044435;28;20397;-75
2022/06/23 10:19:42;;;;;;;;;;;;;;;30.16;21.59;95279.03;5060506;28;19917;-75
2022/06/23 10:22:07;;;;;;;;;;;;;;;30.45;20.93;95280.47;5043699;28;19932;-75
2022/06/23 10:24:52;;;;;;;;;;;;;;;30.71;21.54;95282.53;5061683;28;19924;-75
2022/06/23 10:27:36;;;;;;;;;;;;;;;30.83;21.17;95281.94;5077890;28;20369;-75
2022/06/23 10:30:08;;;;;;;;;;;;;;;30.64;21.53;95288.47;5043039;28;19916;-75
2022/06/23 10:32:45;;;;;;;;;;;;;;;30.42;22.32;95281.13;5062602;28;19966;-75
2022/06/23 10:35:24;;;;;;;;;;;;;;;30.73;21.68;95274.81;5043445;28;19920;-73
2022/06/23 10:37:52;;;;;;;;;;;;;;;31.01;21.76;95270.97;5072510;28;19928;-72
2022/06/23 10:40:25;;;;;;;;;;;;;;;30.83;20.99;95263.50;5062295;28;19912;-72
2022/06/23 10:42:57;;;;;;;;;;;;;;;30.70;20.92;95269.94;5042667;28;19928;-72
2022/06/23 10:45:41;;;;;;;;;;;;;;;30.93;21.20;95261.59;5058822;28;20376;-72
2022/06/23 10:48:24;;;;;;;;;;;;;;;31.58;20.05;95264.59;5061647;28;19939;-72
2022/06/23 10:50:59;;;;;;;;;;;;;;;31.22;20.85;95266.53;5060963;28;20283;-72
2022/06/23 10:53:33;;;;;;;;;;;;;;;30.76;21.03;95254.91;5063025;28;19920;-80
2022/06/23 10:56:17;;;;;;;;;;;;;;;31.22;20.36;95247.28;5065210;28;20385;-80
2022/06/23 10:58:46;;;;;;;;;;;;;;;30.92;19.92;95254.47;5051668;28;19925;-79
2022/06/23 11:01:17;;;;;;;;;;;;;;;30.91;20.10;95248.19;5062985;28;19924;-79
2022/06/23 11:03:50;;;;;;;;;;;;;;;30.81;20.25;95251.22;5047157;28;19939;-79
2022/06/23 11:06:18;;;;;;;;;;;;;;;30.77;20.77;95247.50;5064917;28;20468;-80
2022/06/23 11:08:50;;;;;;;;;;;;;;;30.66;20.64;95238.75;5047736;28;20333;-80
2022/06/23 11:11:34;;;;;;;;;;;;;;;30.94;20.34;95250.31;5046026;28;19917;-80
2022/06/23 11:14:02;;;;;;;;;;;;;;;30.66;20.15;95241.50;5078761;28;19947;-80
2022/06/23 11:16:40;;;;;;;;;;;;;;;31.08;20.14;95241.91;5045279;28;19965;-81
2022/06/23 11:19:23;;;;;;;;;;;;;;;31.07;20.42;95234.78;5045134;28;19960;-80
2022/06/23 11:22:01;;;;;;;;;;;;;;;31.39;21.26;95233.84;5042132;28;19928;-81
2022/06/23 11:24:45;;;;;;;;;;;;;;;31.42;19.79;95236.78;5045533;28;20011;-80
2022/06/23 11:27:11;;;;;;;;;;;;;;;31.01;20.45;95235.25;5052576;28;19920;-80
2022/06/23 11:29:36;;;;;;;;;;;;;;;31.33;19.54;95236.78;5066629;28;19989;-78
2022/06/23 11:32:13;;;;;;;;;;;;;;;31.27;19.32;95235.31;5051908;28;20288;-79
2022/06/23 11:35:08;;;;;;;;;;;;;;;31.76;19.67;95234.34;5055801;28;19936;-78
2022/06/23 11:37:49;;;;;;;;;;;;;;;32.21;19.31;95227.63;5047419;28;19929;-79
2022/06/23 11:40:33;;;;;;;;;;;;;;;32.24;19.05;95226.16;5062692;28;20452;-78
2022/06/23 11:43:05;;;;;;;;;;;;;;;32.58;18.26;95229.94;5076764;28;20392;-77
2022/06/23 11:45:35;;;;;;;;;;;;;;;32.97;19.60;95226.31;5043571;28;19917;-77
2022/06/23 11:48:03;;;;;;;;;;;;;;;32.77;19.75;95228.72;5023754;28;19917;-77
2022/06/23 11:50:38;;;;;;;;;;;;;;;33.19;19.00;95224.38;5046016;28;19928;-78
2022/06/23 11:53:24;;;;;;;;;;;;;;;33.23;18.95;95217.88;5043497;28;19920;-78
2022/06/23 11:55:56;;;;;;;;;;;;;;;32.96;19.57;95208.19;5036598;28;19916;-77
2022/06/23 11:58:27;;;;;;;;;;;;;;;33.41;18.15;95216.94;5028117;28;19946;-78
2022/06/23 12:00:53;;;;;;;;;;;;;;;33.31;19.65;95202.41;5062469;28;19917;-78
2022/06/23 12:03:44;;;;;;;;;;;;;;;33.14;17.79;95206.91;5043352;28;19929;-78
2022/06/23 12:06:13;;;;;;;;;;;;;;;32.29;19.06;95206.72;5058526;28;19978;-77
2022/06/23 12:08:38;;;;;;;;;;;;;;;32.43;17.91;95201.00;5044571;28;20388;-77
2022/06/23 12:11:04;;;;;;;;;;;;;;;32.52;18.34;95198.16;5061847;28;19967;-77
2022/06/23 12:13:29;;;;;;;;;;;;;;;32.01;17.64;95201.59;5043603;28;19920;-78
2022/06/23 12:15:55;;;;;;;;;;;;;;;31.90;17.49;95195.66;5043755;28;19912;-77
2022/06/23 12:18:24;;;;;;;;;;;;;;;31.66;19.14;95193.44;5043070;28;19963;-77
2022/06/23 12:21:08;;;;;;;;;;;;;;;32.20;18.12;95198.50;5043522;28;20016;-77
2022/06/23 12:23:42;;;;;;;;;;;;;;;32.73;17.56;95189.97;5043500;28;20359;-78
2022/06/23 12:26:13;;;;;;;;;;;;;;;33.32;17.53;95197.69;5046614;28;19946;-77
2022/06/23 12:28:40;;;;;;;;;;;;;;;33.90;16.19;95194.28;5065066;28;19924;-78
2022/06/23 12:31:10;;;;;;;;;;;;;;;33.88;16.92;95185.50;5028952;28;20231;-78
2022/06/23 12:33:37;;;;;;;;;;;;;;;33.33;17.24;95189.09;5047415;28;19920;-79
2022/06/23 12:36:07;;;;;;;;;;;;;;;33.47;17.69;95185.28;5048237;28;19927;-79
2022/06/23 12:38:35;;;;;;;;;;;;;;;33.69;16.92;95186.03;5047792;28;19935;-78
2022/06/23 12:41:27;;;;;;;;;;;;;;;34.12;16.28;95179.25;5065059;28;19944;-79
2022/06/23 12:44:04;;;;;;;;;;;;;;;34.70;16.07;95171.22;5062190;28;19963;-78
2022/06/23 12:46:36;;;;;;;;;;;;;;;34.46;16.41;95170.09;5050916;28;19928;-77
2022/06/23 12:49:01;;;;;;;;;;;;;;;34.90;16.37;95172.25;5079344;28;19921;-78
2022/06/23 12:51:45;;;;;;;;;;;;;;;35.22;16.22;95166.88;5047397;28;19988;-78
2022/06/23 12:54:13;;;;;;;;;;;;;;;34.99;16.30;95163.81;5067502;28;19920;-77
2022/06/23 12:56:48;;;;;;;;;;;;;;;35.36;15.17;95166.47;5066722;28;20379;-77
2022/06/23 12:59:28;;;;;;;;;;;;;;;35.30;15.76;95163.16;5052910;28;20388;-78
2022/06/23 13:02:14;;;;;;;;;;;;;;;34.63;15.68;95169.81;5048091;28;19920;-78
2022/06/23 13:04:46;;;;;;;;;;;;;;;34.91;15.32;95158.06;5024036;28;20293;-80
2022/06/23 13:07:17;;;;;;;;;;;;;;;35.29;15.38;95153.25;5065314;28;20498;-81
2022/06/23 13:09:43;;;;;;;;;;;;;;;34.70;15.72;95149.91;5050634;28;19924;-80
2022/06/23 13:12:36;;;;;;;;;;;;;;;35.47;15.14;95154.91;5067088;28;20381;-79
2022/06/23 13:15:04;;;;;;;;;;;;;;;35.41;14.44;95148.84;5063397;28;19964;-79
2022/06/23 13:17:32;;;;;;;;;;;;;;;35.99;14.33;95150.34;5027740;28;20374;-79
2022/06/23 13:19:57;;;;;;;;;;;;;;;36.19;13.90;95159.59;5075851;28;19912;-81